Time;durP1;ratioP1;P1;durP2;ratioP2;P2;SDS_P1;SDS_P2;PMS_P1;PMS_P2;Temp;Humidity;BMP_temperature;BMP_pressure;BME280_temperature;BME280_humidity;BME280_pressure;Samples;Min_cycle;Max_cycle;Signal;HPM_P1;HPM_P2
2023/11/19 00:00:14;;;;;;;;;;;;;;;10.41;nan;101737.28;5037890;28;20392;-86
2023/11/19 00:02:39;;;;;;;;;;;;;;;10.40;nan;101720.38;5043982;28;19972;-87
2023/11/19 00:05:08;;;;;;;;;;;;;;;10.39;nan;101712.59;5038573;28;19948;-87
2023/11/19 00:07:34;;;;;;;;;;;;;;;10.41;nan;101705.97;5038285;28;19917;-86
2023/11/19 00:10:09;;;;;;;;;;;;;;;10.46;nan;101698.09;5043585;28;20288;-86
2023/11/19 00:12:34;;;;;;;;;;;;;;;10.43;nan;101695.84;5038914;28;20210;-86
2023/11/19 00:15:00;;;;;;;;;;;;;;;10.43;nan;101692.38;5037895;28;20436;-87
2023/11/19 00:17:25;;;;;;;;;;;;;;;10.45;nan;101684.91;5039293;28;20443;-86
2023/11/19 00:19:51;;;;;;;;;;;;;;;10.40;nan;101676.72;5036482;28;19917;-86
2023/11/19 00:22:16;;;;;;;;;;;;;;;10.37;nan;101675.31;5038299;28;19927;-86
2023/11/19 00:24:42;;;;;;;;;;;;;;;10.40;nan;101664.13;5039454;28;19968;-86
2023/11/19 00:27:07;;;;;;;;;;;;;;;10.43;nan;101661.03;5040374;28;20010;-86
2023/11/19 00:29:33;;;;;;;;;;;;;;;10.44;nan;101651.13;5038921;28;19921;-86
2023/11/19 00:31:58;;;;;;;;;;;;;;;10.43;nan;101647.63;5037257;28;20133;-87
2023/11/19 00:34:23;;;;;;;;;;;;;;;10.46;nan;101643.69;5034692;28;19929;-87
2023/11/19 00:36:50;;;;;;;;;;;;;;;10.46;nan;101647.19;5011451;28;20298;-85
2023/11/19 00:39:17;;;;;;;;;;;;;;;10.46;nan;101633.78;5037403;28;19917;-86
2023/11/19 00:41:42;;;;;;;;;;;;;;;10.47;nan;101618.53;5040312;28;19928;-86
2023/11/19 00:44:08;;;;;;;;;;;;;;;10.44;nan;101617.13;5043952;28;20005;-86
2023/11/19 00:46:33;;;;;;;;;;;;;;;10.46;nan;101611.53;5040416;28;19917;-85
2023/11/19 00:49:00;;;;;;;;;;;;;;;10.46;nan;101598.13;5045182;28;19917;-85
2023/11/19 00:51:26;;;;;;;;;;;;;;;10.48;nan;101594.19;5042455;28;19921;-85
2023/11/19 00:53:52;;;;;;;;;;;;;;;10.49;nan;101595.00;5042854;28;19971;-86
2023/11/19 00:56:19;;;;;;;;;;;;;;;10.51;nan;101591.03;5041210;28;19967;-86
2023/11/19 00:58:45;;;;;;;;;;;;;;;10.47;nan;101587.19;5043961;28;20389;-85
2023/11/19 01:01:11;;;;;;;;;;;;;;;10.52;nan;101590.00;5039775;28;19924;-86
2023/11/19 01:03:36;;;;;;;;;;;;;;;10.51;nan;101583.00;5040354;28;19921;-86
2023/11/19 01:06:02;;;;;;;;;;;;;;;10.49;nan;101582.41;5041736;28;19917;-86
2023/11/19 01:08:27;;;;;;;;;;;;;;;10.52;nan;101567.75;5041088;28;19917;-86
2023/11/19 01:10:53;;;;;;;;;;;;;;;10.46;nan;101564.13;5045341;28;20289;-86
2023/11/19 01:13:18;;;;;;;;;;;;;;;10.47;nan;101560.41;5036481;28;20303;-87
2023/11/19 01:15:43;;;;;;;;;;;;;;;10.44;nan;101550.13;5037546;28;19916;-86
2023/11/19 01:18:09;;;;;;;;;;;;;;;10.43;nan;101553.88;5036872;28;20333;-85
2023/11/19 01:20:34;;;;;;;;;;;;;;;10.48;nan;101551.31;5042788;28;19923;-86
2023/11/19 01:23:00;;;;;;;;;;;;;;;10.49;nan;101530.69;5039057;28;20442;-85
2023/11/19 01:25:25;;;;;;;;;;;;;;;10.48;nan;101529.06;5043740;28;19924;-86
2023/11/19 01:27:50;;;;;;;;;;;;;;;10.49;nan;101514.63;5042623;28;20496;-86
2023/11/19 01:30:16;;;;;;;;;;;;;;;10.48;nan;101497.72;5040035;28;19929;-86
2023/11/19 01:32:41;;;;;;;;;;;;;;;10.50;nan;101501.00;5041239;28;19924;-85
2023/11/19 01:35:07;;;;;;;;;;;;;;;10.51;nan;101493.78;5043443;28;19921;-86
2023/11/19 01:37:34;;;;;;;;;;;;;;;10.53;nan;101483.63;5043480;28;19917;-86
2023/11/19 01:40:00;;;;;;;;;;;;;;;10.57;nan;101469.53;5045333;28;19928;-86
2023/11/19 01:42:25;;;;;;;;;;;;;;;10.53;nan;101468.38;5043601;28;20288;-85
2023/11/19 01:45:00;;;;;;;;;;;;;;;10.52;nan;101464.06;5042275;28;20404;-86
2023/11/19 01:47:26;;;;;;;;;;;;;;;10.51;nan;101461.63;5045299;28;20990;-86
2023/11/19 01:49:52;;;;;;;;;;;;;;;10.49;nan;101453.00;5044307;28;19924;-85
2023/11/19 01:52:17;;;;;;;;;;;;;;;10.45;nan;101443.78;5043729;28;19928;-86
2023/11/19 01:54:43;;;;;;;;;;;;;;;10.43;nan;101445.88;5044854;28;19921;-86
2023/11/19 01:57:09;;;;;;;;;;;;;;;10.42;nan;101442.41;5046250;28;20360;-86
2023/11/19 01:59:35;;;;;;;;;;;;;;;10.40;nan;101438.28;5043942;28;20324;-86
2023/11/19 02:02:00;;;;;;;;;;;;;;;10.44;nan;101442.97;5044300;28;19924;-86
2023/11/19 02:04:26;;;;;;;;;;;;;;;10.45;nan;101425.84;5042829;28;21542;-86
2023/11/19 02:06:54;;;;;;;;;;;;;;;10.46;nan;101429.34;5040929;28;19917;-85
2023/11/19 02:09:19;;;;;;;;;;;;;;;10.49;nan;101435.06;5042196;28;19924;-85
2023/11/19 02:11:45;;;;;;;;;;;;;;;10.54;nan;101420.97;5042042;28;19917;-86
2023/11/19 02:14:10;;;;;;;;;;;;;;;10.57;nan;101413.28;5042273;28;20009;-86
2023/11/19 02:16:36;;;;;;;;;;;;;;;10.62;nan;101401.06;5042560;28;19916;-86
2023/11/19 02:19:02;;;;;;;;;;;;;;;10.63;nan;101398.16;5041890;28;20373;-86
2023/11/19 02:21:27;;;;;;;;;;;;;;;10.59;nan;101371.00;5041296;28;19925;-86
2023/11/19 02:23:52;;;;;;;;;;;;;;;10.63;nan;101365.19;5042108;28;20435;-86
2023/11/19 02:26:22;;;;;;;;;;;;;;;10.57;nan;101365.03;5040720;28;19932;-86
2023/11/19 02:28:47;;;;;;;;;;;;;;;10.58;nan;101363.16;5042529;28;19924;-85
2023/11/19 02:31:13;;;;;;;;;;;;;;;10.53;nan;101361.19;5041532;28;19947;-86
2023/11/19 02:33:38;;;;;;;;;;;;;;;10.52;nan;101356.06;5042288;28;19921;-85
2023/11/19 02:36:04;;;;;;;;;;;;;;;10.55;nan;101356.41;5046063;28;19923;-86
2023/11/19 02:38:30;;;;;;;;;;;;;;;10.56;nan;101350.00;5042389;28;19935;-85
2023/11/19 02:40:56;;;;;;;;;;;;;;;10.55;nan;101342.22;5039810;28;20800;-86
2023/11/19 02:43:21;;;;;;;;;;;;;;;10.53;nan;101339.75;5043525;28;19929;-86
2023/11/19 02:45:47;;;;;;;;;;;;;;;10.50;nan;101332.19;5046457;28;20037;-86
2023/11/19 02:48:14;;;;;;;;;;;;;;;10.52;nan;101335.47;5041121;28;19921;-87
2023/11/19 02:50:39;;;;;;;;;;;;;;;10.61;nan;101329.75;5043822;28;19920;-86
2023/11/19 02:53:06;;;;;;;;;;;;;;;10.62;nan;101323.34;5044734;28;19917;-85
2023/11/19 02:55:37;;;;;;;;;;;;;;;10.55;nan;101318.09;5037953;28;19980;-86
2023/11/19 02:58:07;;;;;;;;;;;;;;;10.50;nan;101324.16;5044987;28;19917;-86
2023/11/19 03:00:36;;;;;;;;;;;;;;;10.47;nan;101321.94;5043262;28;19920;-86
2023/11/19 03:03:20;;;;;;;;;;;;;;;10.49;nan;101319.84;5042300;28;19976;-86
2023/11/19 03:05:46;;;;;;;;;;;;;;;10.49;nan;101306.47;5042081;28;20526;-87
2023/11/19 03:08:12;;;;;;;;;;;;;;;10.53;nan;101286.19;5039961;28;19917;-87
2023/11/19 03:10:37;;;;;;;;;;;;;;;10.53;nan;101266.59;5026086;28;20503;-87
2023/11/19 03:13:03;;;;;;;;;;;;;;;10.49;nan;101255.56;5041663;28;19924;-86
2023/11/19 03:15:28;;;;;;;;;;;;;;;10.43;nan;101247.66;5032153;28;19962;-88
2023/11/19 03:17:54;;;;;;;;;;;;;;;10.42;nan;101240.66;5042412;28;19923;-86
2023/11/19 03:20:20;;;;;;;;;;;;;;;10.40;nan;101232.84;5042185;28;20499;-86
2023/11/19 03:22:46;;;;;;;;;;;;;;;10.42;nan;101222.72;5041543;28;19921;-86
2023/11/19 03:25:11;;;;;;;;;;;;;;;10.42;nan;101203.97;5043169;28;19917;-87
2023/11/19 03:27:41;;;;;;;;;;;;;;;10.37;nan;101195.81;5040617;28;19925;-87
2023/11/19 03:30:07;;;;;;;;;;;;;;;10.32;nan;101202.94;5042075;28;19924;-85
2023/11/19 03:32:32;;;;;;;;;;;;;;;10.35;nan;101197.91;5038946;28;19920;-87
2023/11/19 03:34:58;;;;;;;;;;;;;;;10.35;nan;101186.38;5040040;28;19952;-86
2023/11/19 03:37:23;;;;;;;;;;;;;;;10.35;nan;101179.16;5038276;28;19959;-86
2023/11/19 03:39:49;;;;;;;;;;;;;;;10.33;nan;101173.22;5041204;28;19968;-86
2023/11/19 03:42:14;;;;;;;;;;;;;;;10.33;nan;101183.13;5038910;28;19971;-88
2023/11/19 03:44:39;;;;;;;;;;;;;;;10.29;nan;101167.53;5037450;28;20484;-87
2023/11/19 03:47:05;;;;;;;;;;;;;;;10.29;nan;101172.09;5037114;28;19960;-87
2023/11/19 03:49:30;;;;;;;;;;;;;;;10.26;nan;101172.56;5040708;28;19917;-87
2023/11/19 03:51:55;;;;;;;;;;;;;;;10.27;nan;101164.28;5041224;28;19995;-88
2023/11/19 03:54:22;;;;;;;;;;;;;;;10.28;nan;101160.56;5038888;28;19928;-87
2023/11/19 03:56:48;;;;;;;;;;;;;;;10.29;nan;101164.03;5039675;28;20481;-88
2023/11/19 03:59:15;;;;;;;;;;;;;;;10.25;nan;101160.22;5045794;28;19924;-86
2023/11/19 04:01:40;;;;;;;;;;;;;;;10.19;nan;101143.19;5038870;28;19919;-86
2023/11/19 04:04:06;;;;;;;;;;;;;;;10.17;nan;101126.53;5038247;28;20296;-87
2023/11/19 04:06:31;;;;;;;;;;;;;;;10.18;nan;101122.81;5041319;28;19917;-86
2023/11/19 04:08:56;;;;;;;;;;;;;;;10.16;nan;101121.41;5040320;28;19925;-86
2023/11/19 04:11:22;;;;;;;;;;;;;;;10.13;nan;101108.50;5040495;28;19929;-86
2023/11/19 04:13:47;;;;;;;;;;;;;;;10.18;nan;101105.94;5039454;28;19921;-87
2023/11/19 04:16:12;;;;;;;;;;;;;;;10.13;nan;101092.44;5039135;28;20433;-86
2023/11/19 04:18:38;;;;;;;;;;;;;;;10.14;nan;101088.72;5044237;28;19970;-87
2023/11/19 04:21:06;;;;;;;;;;;;;;;10.13;nan;101082.53;5048748;28;20312;-86
2023/11/19 04:23:31;;;;;;;;;;;;;;;10.13;nan;101077.19;5042889;28;20063;-86
2023/11/19 04:25:56;;;;;;;;;;;;;;;10.15;nan;101068.91;5039507;28;20637;-86
2023/11/19 04:28:22;;;;;;;;;;;;;;;10.16;nan;101067.88;5039442;28;19931;-86
2023/11/19 04:30:47;;;;;;;;;;;;;;;10.15;nan;101059.03;5032207;28;19921;-86
2023/11/19 04:33:12;;;;;;;;;;;;;;;10.13;nan;101042.38;5044025;28;20019;-87
2023/11/19 04:35:38;;;;;;;;;;;;;;;10.16;nan;101049.94;5043770;28;19932;-87
2023/11/19 04:38:03;;;;;;;;;;;;;;;10.19;nan;101045.97;5043832;28;19917;-86
2023/11/19 04:40:28;;;;;;;;;;;;;;;10.22;nan;101042.84;5043120;28;20381;-88
2023/11/19 04:42:54;;;;;;;;;;;;;;;10.20;nan;101029.66;5043345;28;19927;-87
2023/11/19 04:45:20;;;;;;;;;;;;;;;10.20;nan;101010.91;5040779;28;19924;-86
2023/11/19 04:47:45;;;;;;;;;;;;;;;10.22;nan;101000.81;5028356;28;20015;-86
2023/11/19 04:50:10;;;;;;;;;;;;;;;10.22;nan;101003.47;5040146;28;20003;-86
2023/11/19 04:52:40;;;;;;;;;;;;;;;10.23;nan;100985.56;5042949;28;20578;-86
2023/11/19 04:55:06;;;;;;;;;;;;;;;10.26;nan;100969.84;5040977;28;19925;-86
2023/11/19 04:57:32;;;;;;;;;;;;;;;10.28;nan;100966.91;5042043;28;19921;-86
2023/11/19 04:59:58;;;;;;;;;;;;;;;10.31;nan;100974.47;5040130;28;20411;-86
2023/11/19 05:02:23;;;;;;;;;;;;;;;10.34;nan;100965.94;5042733;28;20002;-86
2023/11/19 05:04:49;;;;;;;;;;;;;;;10.37;nan;100973.50;5044957;28;19921;-86
2023/11/19 05:07:14;;;;;;;;;;;;;;;10.36;nan;100963.84;5044765;28;19917;-87
2023/11/19 05:09:40;;;;;;;;;;;;;;;10.33;nan;100963.50;5042892;28;19925;-85
2023/11/19 05:12:08;;;;;;;;;;;;;;;10.30;nan;100959.47;5042295;28;19928;-85
2023/11/19 05:14:33;;;;;;;;;;;;;;;10.29;nan;100958.66;5039204;28;19924;-86
2023/11/19 05:16:59;;;;;;;;;;;;;;;10.25;nan;100952.16;5046204;28;19917;-86
2023/11/19 05:19:24;;;;;;;;;;;;;;;10.26;nan;100943.06;5043985;28;19971;-87
2023/11/19 05:21:52;;;;;;;;;;;;;;;10.28;nan;100937.47;5039594;28;19929;-87
2023/11/19 05:24:17;;;;;;;;;;;;;;;10.26;nan;100918.16;5045036;28;19924;-86
2023/11/19 05:26:42;;;;;;;;;;;;;;;10.33;nan;100904.59;5040821;28;20016;-86
2023/11/19 05:29:08;;;;;;;;;;;;;;;10.29;nan;100896.25;5044556;28;20277;-87
2023/11/19 05:31:33;;;;;;;;;;;;;;;10.29;nan;100886.34;5041863;28;20484;-85
2023/11/19 05:33:58;;;;;;;;;;;;;;;10.28;nan;100887.41;5039120;28;19920;-86
2023/11/19 05:36:24;;;;;;;;;;;;;;;10.26;nan;100883.34;5039242;28;19976;-85
2023/11/19 05:38:49;;;;;;;;;;;;;;;10.24;nan;100890.81;5042532;28;20003;-86
2023/11/19 05:41:14;;;;;;;;;;;;;;;10.23;nan;100894.50;5043133;28;20494;-87
2023/11/19 05:43:43;;;;;;;;;;;;;;;10.21;nan;100899.28;5042988;28;19929;-86
2023/11/19 05:46:08;;;;;;;;;;;;;;;10.19;nan;100899.50;5042699;28;20412;-87
2023/11/19 05:48:34;;;;;;;;;;;;;;;10.24;nan;100902.31;5041547;28;19917;-88
2023/11/19 05:51:00;;;;;;;;;;;;;;;10.25;nan;100903.13;5041648;28;20581;-87
2023/11/19 05:53:25;;;;;;;;;;;;;;;10.24;nan;100898.84;5042042;28;19924;-86
2023/11/19 05:56:03;;;;;;;;;;;;;;;10.24;nan;100888.94;5046228;28;20293;-87
2023/11/19 05:58:29;;;;;;;;;;;;;;;10.29;nan;100886.34;5046169;28;19924;-86
2023/11/19 06:00:55;;;;;;;;;;;;;;;10.29;nan;100880.16;5046862;28;19921;-88
2023/11/19 06:03:21;;;;;;;;;;;;;;;10.28;nan;100871.31;5043419;28;19983;-88
2023/11/19 06:05:48;;;;;;;;;;;;;;;10.27;nan;100867.03;5048543;28;19917;-88
2023/11/19 06:08:14;;;;;;;;;;;;;;;10.29;nan;100861.41;5050201;28;19940;-88
2023/11/19 06:10:43;;;;;;;;;;;;;;;10.27;nan;100855.50;5046809;28;20007;-87
2023/11/19 06:13:10;;;;;;;;;;;;;;;10.25;nan;100850.38;5043298;28;19921;-88
2023/11/19 06:15:36;;;;;;;;;;;;;;;10.23;nan;100857.03;5045702;28;19916;-88
2023/11/19 06:18:03;;;;;;;;;;;;;;;10.22;nan;100855.41;5046226;28;19916;-89
2023/11/19 06:20:29;;;;;;;;;;;;;;;10.25;nan;100846.91;5044293;28;19921;-88
2023/11/19 06:22:54;;;;;;;;;;;;;;;10.27;nan;100847.47;5047339;28;20432;-87
2023/11/19 06:25:20;;;;;;;;;;;;;;;10.24;nan;100838.06;5040934;28;19917;-87
2023/11/19 06:27:45;;;;;;;;;;;;;;;10.23;nan;100838.28;5049058;28;19928;-88
2023/11/19 06:30:11;;;;;;;;;;;;;;;10.27;nan;100839.44;5031371;28;19952;-88
2023/11/19 06:32:36;;;;;;;;;;;;;;;10.29;nan;100835.47;5048724;28;19920;-88
2023/11/19 06:35:04;;;;;;;;;;;;;;;10.33;nan;100834.97;5033336;28;20395;-88
2023/11/19 06:37:29;;;;;;;;;;;;;;;10.34;nan;100828.56;5050022;28;19963;-88
2023/11/19 06:39:55;;;;;;;;;;;;;;;10.34;nan;100824.00;5046611;28;19964;-88
2023/11/19 06:42:20;;;;;;;;;;;;;;;10.35;nan;100828.31;5054292;28;20300;-88
2023/11/19 06:44:45;;;;;;;;;;;;;;;10.33;nan;100830.41;5041775;28;19925;-86
2023/11/19 06:47:11;;;;;;;;;;;;;;;10.32;nan;100826.13;5041798;28;20020;-87
2023/11/19 06:49:37;;;;;;;;;;;;;;;10.29;nan;100819.38;5040951;28;19917;-88
2023/11/19 06:52:02;;;;;;;;;;;;;;;10.32;nan;100820.75;5042259;28;19929;-87
2023/11/19 06:54:27;;;;;;;;;;;;;;;10.33;nan;100802.81;5039027;28;20119;-87
2023/11/19 06:56:53;;;;;;;;;;;;;;;10.35;nan;100806.06;5044641;28;19913;-88
2023/11/19 06:59:18;;;;;;;;;;;;;;;10.37;nan;100804.75;5040214;28;20381;-88
2023/11/19 07:01:44;;;;;;;;;;;;;;;10.37;nan;100799.41;5022237;28;19921;-88
2023/11/19 07:04:12;;;;;;;;;;;;;;;10.35;nan;100795.34;5041963;28;20427;-88
2023/11/19 07:06:38;;;;;;;;;;;;;;;10.35;nan;100800.72;5043632;28;19991;-89
2023/11/19 07:09:09;;;;;;;;;;;;;;;10.28;nan;100788.31;5043806;28;20377;-88
2023/11/19 07:11:38;;;;;;;;;;;;;;;10.27;nan;100785.88;5041240;28;19917;-88
2023/11/19 07:14:04;;;;;;;;;;;;;;;10.28;nan;100771.44;5038746;28;20427;-88
2023/11/19 07:16:29;;;;;;;;;;;;;;;10.33;nan;100765.34;5038679;28;19929;-87
2023/11/19 07:18:55;;;;;;;;;;;;;;;10.38;nan;100750.13;5039244;28;21623;-86
2023/11/19 07:21:20;;;;;;;;;;;;;;;10.36;nan;100749.56;5042236;28;19923;-88
2023/11/19 07:23:46;;;;;;;;;;;;;;;10.34;nan;100750.88;5029876;28;20001;-87
2023/11/19 07:26:12;;;;;;;;;;;;;;;10.32;nan;100748.44;5040338;28;19955;-87
2023/11/19 07:28:37;;;;;;;;;;;;;;;10.33;nan;100776.84;5043974;28;19960;-87
2023/11/19 07:31:03;;;;;;;;;;;;;;;10.34;nan;100775.78;5038113;28;19924;-86
2023/11/19 07:33:29;;;;;;;;;;;;;;;10.32;nan;100769.88;5041257;28;19951;-86
2023/11/19 07:35:54;;;;;;;;;;;;;;;10.36;nan;100759.47;5037410;28;19928;-86
2023/11/19 07:38:20;;;;;;;;;;;;;;;10.39;nan;100759.78;5040756;28;19925;-86
2023/11/19 07:40:45;;;;;;;;;;;;;;;10.37;nan;100774.50;5027798;28;20011;-86
2023/11/19 07:43:10;;;;;;;;;;;;;;;10.34;nan;100757.03;5038903;28;20054;-86
2023/11/19 07:45:36;;;;;;;;;;;;;;;10.40;nan;100741.84;5040228;28;20280;-84
2023/11/19 07:48:01;;;;;;;;;;;;;;;10.34;nan;100754.38;5035739;28;19918;-86
2023/11/19 07:50:27;;;;;;;;;;;;;;;10.38;nan;100742.09;5038284;28;19961;-86
2023/11/19 07:52:52;;;;;;;;;;;;;;;10.39;nan;100734.88;5037403;28;20459;-85
2023/11/19 07:55:18;;;;;;;;;;;;;;;10.41;nan;100722.88;5037395;28;21332;-85
2023/11/19 07:57:43;;;;;;;;;;;;;;;10.40;nan;100715.06;5035125;28;19921;-85
2023/11/19 08:00:12;;;;;;;;;;;;;;;10.38;nan;100736.75;5021986;28;19921;-86
2023/11/19 08:02:37;;;;;;;;;;;;;;;10.40;nan;100734.63;5035216;28;19959;-86
2023/11/19 08:05:03;;;;;;;;;;;;;;;10.42;nan;100740.56;5037077;28;19952;-84
2023/11/19 08:07:28;;;;;;;;;;;;;;;10.42;nan;100743.25;5034216;28;19917;-85
2023/11/19 08:09:53;;;;;;;;;;;;;;;10.43;nan;100741.38;5032564;28;20499;-86
2023/11/19 08:12:18;;;;;;;;;;;;;;;10.44;nan;100748.38;5020314;28;19917;-85
2023/11/19 08:14:44;;;;;;;;;;;;;;;10.46;nan;100754.28;5037188;28;19925;-84
2023/11/19 08:17:09;;;;;;;;;;;;;;;10.50;nan;100745.50;5035482;28;19925;-85
2023/11/19 08:19:35;;;;;;;;;;;;;;;10.55;nan;100737.50;5035996;28;19951;-85
2023/11/19 08:22:00;;;;;;;;;;;;;;;10.57;nan;100737.25;5036912;28;20409;-86
2023/11/19 08:24:25;;;;;;;;;;;;;;;10.57;nan;100732.72;5035553;28;19929;-86
2023/11/19 08:26:51;;;;;;;;;;;;;;;10.62;nan;100723.16;5039053;28;19925;-85
2023/11/19 08:29:16;;;;;;;;;;;;;;;10.65;nan;100704.69;5035654;28;19920;-85
2023/11/19 08:31:42;;;;;;;;;;;;;;;10.62;nan;100704.41;5035402;28;19931;-87
2023/11/19 08:34:09;;;;;;;;;;;;;;;10.58;nan;100701.38;5043485;28;19923;-87
2023/11/19 08:36:35;;;;;;;;;;;;;;;10.59;nan;100701.16;5035263;28;19920;-85
2023/11/19 08:39:00;;;;;;;;;;;;;;;10.59;nan;100713.72;5038737;28;20303;-86
2023/11/19 08:41:26;;;;;;;;;;;;;;;10.56;nan;100700.81;5034226;28;19941;-85
2023/11/19 08:43:51;;;;;;;;;;;;;;;10.54;nan;100697.59;5033923;28;20533;-85
2023/11/19 08:46:16;;;;;;;;;;;;;;;10.52;nan;100692.47;5036647;28;19917;-85
2023/11/19 08:48:42;;;;;;;;;;;;;;;10.54;nan;100674.28;5034514;28;20788;-84
2023/11/19 08:51:07;;;;;;;;;;;;;;;10.61;nan;100676.78;5037073;28;19932;-85
2023/11/19 08:53:33;;;;;;;;;;;;;;;10.66;nan;100676.03;5036316;28;20342;-85
2023/11/19 08:55:58;;;;;;;;;;;;;;;10.66;nan;100662.63;5031868;28;19925;-84
2023/11/19 08:58:23;;;;;;;;;;;;;;;10.67;nan;100661.56;5033650;28;21739;-85
2023/11/19 09:00:49;;;;;;;;;;;;;;;10.68;nan;100657.84;5034666;28;21555;-85
2023/11/19 09:03:14;;;;;;;;;;;;;;;10.67;nan;100658.91;5037084;28;19925;-84
2023/11/19 09:05:40;;;;;;;;;;;;;;;10.67;nan;100653.53;5035869;28;19921;-85
2023/11/19 09:08:06;;;;;;;;;;;;;;;10.70;nan;100653.03;5040869;28;19968;-85
2023/11/19 09:10:31;;;;;;;;;;;;;;;10.73;nan;100647.16;5035200;28;19923;-85
2023/11/19 09:12:57;;;;;;;;;;;;;;;10.76;nan;100641.28;5037754;28;19928;-85
2023/11/19 09:15:22;;;;;;;;;;;;;;;10.72;nan;100632.97;5035412;28;19928;-85
2023/11/19 09:17:47;;;;;;;;;;;;;;;10.76;nan;100631.38;5034716;28;19994;-86
2023/11/19 09:20:15;;;;;;;;;;;;;;;10.70;nan;100619.00;5038715;28;19921;-85
2023/11/19 09:22:40;;;;;;;;;;;;;;;10.70;nan;100629.72;5035404;28;19925;-84
2023/11/19 09:25:06;;;;;;;;;;;;;;;10.72;nan;100624.09;5038202;28;19975;-85
2023/11/19 09:27:31;;;;;;;;;;;;;;;10.67;nan;100618.69;5041938;28;19921;-84
2023/11/19 09:29:58;;;;;;;;;;;;;;;10.75;nan;100610.19;5040576;28;19921;-85
2023/11/19 09:32:23;;;;;;;;;;;;;;;10.80;nan;100611.09;5038285;28;19921;-85
2023/11/19 09:34:49;;;;;;;;;;;;;;;10.83;nan;100615.13;5031772;28;19928;-85
2023/11/19 09:37:14;;;;;;;;;;;;;;;10.91;nan;100598.56;5037619;28;19921;-85
2023/11/19 09:39:43;;;;;;;;;;;;;;;10.93;nan;100604.50;5038558;28;19925;-86
2023/11/19 09:42:08;;;;;;;;;;;;;;;10.91;nan;100603.94;5036858;28;19924;-85
2023/11/19 09:44:33;;;;;;;;;;;;;;;10.92;nan;100608.22;5035704;28;20316;-85
2023/11/19 09:46:59;;;;;;;;;;;;;;;10.90;nan;100605.00;5039187;28;19932;-85
2023/11/19 09:49:26;;;;;;;;;;;;;;;10.89;nan;100598.03;5041308;28;19917;-85
2023/11/19 09:51:51;;;;;;;;;;;;;;;10.82;nan;100584.03;5039921;28;19921;-85
2023/11/19 09:54:17;;;;;;;;;;;;;;;10.80;nan;100583.47;5039928;28;20587;-84
2023/11/19 09:56:43;;;;;;;;;;;;;;;10.83;nan;100585.66;5026566;28;19921;-85
2023/11/19 09:59:10;;;;;;;;;;;;;;;10.87;nan;100579.50;5041773;28;19925;-85
2023/11/19 10:01:36;;;;;;;;;;;;;;;10.94;nan;100589.22;5036638;28;19917;-85
2023/11/19 10:04:02;;;;;;;;;;;;;;;10.92;nan;100573.38;5036007;28;20301;-85
2023/11/19 10:06:27;;;;;;;;;;;;;;;10.91;nan;100574.44;5040318;28;19921;-85
2023/11/19 10:08:53;;;;;;;;;;;;;;;10.93;nan;100566.16;5037751;28;19952;-85
2023/11/19 10:11:18;;;;;;;;;;;;;;;10.94;nan;100565.91;5039778;28;19971;-85
2023/11/19 10:13:47;;;;;;;;;;;;;;;11.02;nan;100562.75;5039430;28;19916;-85
2023/11/19 10:16:13;;;;;;;;;;;;;;;11.00;nan;100556.84;5039550;28;19923;-86
2023/11/19 10:18:44;;;;;;;;;;;;;;;11.04;nan;100554.47;5033920;28;19917;-85
2023/11/19 10:21:16;;;;;;;;;;;;;;;11.11;nan;100555.84;5042465;28;20366;-84
2023/11/19 10:23:51;;;;;;;;;;;;;;;11.15;nan;100548.94;5037986;28;19921;-85
2023/11/19 10:26:18;;;;;;;;;;;;;;;11.18;nan;100561.81;5039335;28;21583;-85
2023/11/19 10:28:45;;;;;;;;;;;;;;;11.14;nan;100552.69;5035586;28;19964;-84
2023/11/19 10:31:11;;;;;;;;;;;;;;;11.16;nan;100545.19;5035891;28;19925;-85
2023/11/19 10:33:36;;;;;;;;;;;;;;;11.20;nan;100551.66;5040151;28;19925;-86
2023/11/19 10:36:02;;;;;;;;;;;;;;;11.13;nan;100550.22;5035547;28;19921;-85
2023/11/19 10:38:27;;;;;;;;;;;;;;;11.16;nan;100539.81;5037484;28;19931;-84
2023/11/19 10:40:54;;;;;;;;;;;;;;;11.23;nan;100538.78;5039370;28;19923;-85
2023/11/19 10:43:22;;;;;;;;;;;;;;;11.24;nan;100529.69;5037567;28;19935;-85
2023/11/19 10:45:47;;;;;;;;;;;;;;;11.23;nan;100528.06;5037077;28;19917;-85
2023/11/19 10:48:13;;;;;;;;;;;;;;;11.23;nan;100522.69;5038381;28;20355;-85
2023/11/19 10:50:39;;;;;;;;;;;;;;;11.25;nan;100520.56;5040387;28;19967;-85
2023/11/19 10:53:05;;;;;;;;;;;;;;;11.30;nan;100521.41;5038807;28;20489;-84
2023/11/19 10:55:31;;;;;;;;;;;;;;;11.30;nan;100518.72;5036104;28;20404;-84
2023/11/19 10:58:01;;;;;;;;;;;;;;;11.34;nan;100514.47;5040499;28;19924;-84
2023/11/19 11:00:28;;;;;;;;;;;;;;;11.38;nan;100512.88;5037772;28;20432;-85
2023/11/19 11:02:56;;;;;;;;;;;;;;;11.44;nan;100492.25;5036592;28;19924;-84
2023/11/19 11:05:22;;;;;;;;;;;;;;;11.50;nan;100496.59;5037690;28;19921;-85
2023/11/19 11:07:48;;;;;;;;;;;;;;;11.58;nan;100489.91;5038451;28;20443;-85
2023/11/19 11:10:15;;;;;;;;;;;;;;;11.64;nan;100483.50;5038634;28;19921;-85
2023/11/19 11:12:41;;;;;;;;;;;;;;;11.66;nan;100490.22;5036860;28;19924;-85
2023/11/19 11:15:07;;;;;;;;;;;;;;;11.67;nan;100489.19;5034983;28;19925;-84
2023/11/19 11:17:33;;;;;;;;;;;;;;;11.66;nan;100482.16;5037511;28;19971;-85
2023/11/19 11:19:58;;;;;;;;;;;;;;;11.71;nan;100482.22;5041390;28;19932;-84
2023/11/19 11:22:25;;;;;;;;;;;;;;;11.77;nan;100481.16;5034233;28;19917;-86
2023/11/19 11:25:19;;;;;;;;;;;;;;;11.84;nan;100470.19;5034195;28;20388;-85
2023/11/19 11:28:03;;;;;;;;;;;;;;;11.90;nan;100468.34;5020447;28;19944;-85
2023/11/19 11:30:43;;;;;;;;;;;;;;;11.92;nan;100467.03;5028358;28;20500;-84
2023/11/19 11:33:27;;;;;;;;;;;;;;;11.96;nan;100465.41;5036750;28;19924;-85
2023/11/19 11:36:14;;;;;;;;;;;;;;;12.01;nan;100460.06;5040073;28;20369;-85
2023/11/19 11:38:41;;;;;;;;;;;;;;;12.11;nan;100459.28;5041346;28;20004;-84
2023/11/19 11:41:22;;;;;;;;;;;;;;;12.19;nan;100468.69;5033571;28;20472;-86
2023/11/19 11:43:49;;;;;;;;;;;;;;;12.20;nan;100457.69;5037204;28;19924;-85
2023/11/19 11:46:36;;;;;;;;;;;;;;;12.26;nan;100456.63;5035970;28;19916;-85
2023/11/19 11:49:10;;;;;;;;;;;;;;;12.30;nan;100449.66;5017076;28;19929;-85
2023/11/19 11:51:44;;;;;;;;;;;;;;;12.30;nan;100448.84;5034135;28;19921;-84
2023/11/19 11:54:30;;;;;;;;;;;;;;;12.34;nan;100453.41;5032219;28;19928;-84
2023/11/19 11:57:05;;;;;;;;;;;;;;;12.40;nan;100452.38;5033433;28;19920;-85
2023/11/19 11:59:37;;;;;;;;;;;;;;;12.48;nan;100448.31;5034489;28;19975;-85
2023/11/19 12:02:03;;;;;;;;;;;;;;;12.57;nan;100449.44;5030806;28;19925;-85
2023/11/19 12:04:28;;;;;;;;;;;;;;;12.67;nan;100441.34;5037558;28;20625;-85
2023/11/19 12:07:07;;;;;;;;;;;;;;;12.77;nan;100439.75;5030916;28;20347;-85
2023/11/19 12:09:32;;;;;;;;;;;;;;;12.82;nan;100434.34;5035807;28;19924;-85
2023/11/19 12:12:11;;;;;;;;;;;;;;;12.86;nan;100438.09;5036642;28;19925;-85
2023/11/19 12:14:55;;;;;;;;;;;;;;;12.91;nan;100438.91;5030850;28;19968;-84
2023/11/19 12:17:49;;;;;;;;;;;;;;;13.01;nan;100425.44;5032657;28;20016;-84
2023/11/19 12:20:16;;;;;;;;;;;;;;;13.13;nan;100432.44;5017480;28;20498;-84
2023/11/19 12:22:42;;;;;;;;;;;;;;;13.12;nan;100431.63;5037197;28;19928;-85
2023/11/19 12:25:09;;;;;;;;;;;;;;;13.18;nan;100424.38;5022231;28;19968;-84
2023/11/19 12:27:35;;;;;;;;;;;;;;;13.22;nan;100433.50;5033209;28;20650;-84
2023/11/19 12:30:04;;;;;;;;;;;;;;;13.24;nan;100425.97;5029973;28;19920;-84
2023/11/19 12:32:37;;;;;;;;;;;;;;;13.30;nan;100420.31;5035803;28;19928;-85
2023/11/19 12:35:03;;;;;;;;;;;;;;;13.38;nan;100420.81;5027446;28;19921;-85
2023/11/19 12:37:31;;;;;;;;;;;;;;;13.50;nan;100424.00;5041183;28;19984;-85
2023/11/19 12:39:58;;;;;;;;;;;;;;;13.60;nan;100415.88;5038502;28;20048;-85
2023/11/19 12:42:39;;;;;;;;;;;;;;;13.71;nan;100413.97;5036521;28;19921;-86
2023/11/19 12:45:04;;;;;;;;;;;;;;;13.79;nan;100402.59;5034789;28;20004;-85
2023/11/19 12:47:30;;;;;;;;;;;;;;;13.93;nan;100402.81;5035376;28;20346;-84
2023/11/19 12:49:56;;;;;;;;;;;;;;;14.01;nan;100408.41;5035486;28;19935;-85
2023/11/19 12:52:23;;;;;;;;;;;;;;;14.10;nan;100406.72;5038758;28;19928;-85
2023/11/19 12:54:48;;;;;;;;;;;;;;;14.18;nan;100395.38;5039957;28;19925;-85